Aérodrome :
LOGIN :

S'inscrire | Disclaimer

   EN    FR    IT 

 










Légende :    VFR   VFR Marginal   IFR   IFR Intensif   IFR Très Intensif
Visi : 
Plafond : 
>= 8 km
>= 3000ft
5 à 8 km
1000 à 3000 ft
1500m à 5 km
500 à 1000 ft
800 à 1500m
200 à 500 ft
< 800m
< 200 ft
Symboles :   Orages  Brouillard  Fortes neiges  Fortes précipitations  Vent > 20 kt
SIGMETs :   Divers  Orages  Givrage  Turbulence  Onde Orograph.  Cendres Volcan.






- Altitude de l'aérodrome : 17 ft
- Code IATA : MHQ


EFMA - Mariehamn

DERNIER METAR :
  • 221620Z AUTO 22016G31KT 190V270 CAVOK 06/02 Q0973

METARs EXPIRÉS :
  • 221550Z AUTO 22017G30KT 190V260 CAVOK 06/02 Q0973
  • 221520Z AUTO 22019G36KT 180V260 9999 FEW037 07/02 Q0973
  • 221450Z AUTO 21020G32KT 180V240 9999 BKN040 06/03 Q0973
  • 221420Z AUTO 21023G34KT 9999 BKN037 06/04 Q0974
  • 221350Z AUTO 20023G35KT 9999 BKN030 06/04 Q0974

TAF TAF EFMA
Valide du 22 à 15h jusqu'au 23 à 00h UTC


221427Z 2215/2224 20028G44KT 9999 BKN040
BECMG 2217/2219 26026G36KT



MET'MAP, la Météo Aéronautique d'un coup d'oeil ! - Copyright ORBIFLY Décembre 2007 - Disclaimer

ORBIFLY MET'MAP TEAM :

Programmation & Développement : Alexandra Zaïnal
Sur une idée originale de : Baudouin d'Aumeries
Assistance à la programmation : Marc-Olivier Méhu
Soutien technique & logistique : Manuel Goepfert

Contact : metmap@orbifly.com




SOURCES & CREDITS :

   NOAA